Time,TemperatureF,DewpointF,PressureIn,WindDirection,WindDirectionDegrees,WindSpeedMPH,WindSpeedGustMPH,Humidity,HourlyPrecipIn,Conditions,Clouds,dailyrainin,SoftwareType,DateUTC
2013-03-08 00:03:00,41.2,38.5,29.83,West,259,0.0,0.0,90,0.00,,,0.00,Wunderground v.1.15,2013-03-08 08:03:00,
2013-03-08 00:09:00,41.1,38.4,29.83,West,259,0.0,0.0,90,0.00,,,0.00,Wunderground v.1.15,2013-03-08 08:09:00,
2013-03-08 00:14:00,41.2,38.5,29.83,West,259,0.0,0.0,90,0.00,,,0.00,Wunderground v.1.15,2013-03-08 08:14:00,
2013-03-08 00:19:00,41.3,38.6,29.83,West,259,0.0,0.0,90,0.00,,,0.00,Wunderground v.1.15,2013-03-08 08:19:00,
2013-03-08 00:24:00,41.3,38.9,29.83,West,259,0.0,0.0,91,0.00,,,0.00,Wunderground v.1.15,2013-03-08 08:24:00,
2013-03-08 00:30:00,41.4,39.0,29.83,West,259,0.0,0.0,91,0.00,,,0.00,Wunderground v.1.15,2013-03-08 08:30:00,
2013-03-08 00:35:00,41.5,38.8,29.83,West,259,0.0,0.0,90,0.00,,,0.00,Wunderground v.1.15,2013-03-08 08:35:00,
2013-03-08 00:40:00,41.5,38.8,29.82,West,259,0.0,0.0,90,0.00,,,0.00,Wunderground v.1.15,2013-03-08 08:40:00,
2013-03-08 00:46:00,41.6,38.9,29.82,West,259,0.0,0.0,90,0.00,,,0.00,Wunderground v.1.15,2013-03-08 08:46:00,
2013-03-08 00:51:00,41.6,38.9,29.82,West,259,0.0,0.0,90,0.00,,,0.00,Wunderground v.1.15,2013-03-08 08:51:00,
2013-03-08 00:56:00,41.8,39.4,29.82,West,259,0.0,0.0,91,0.00,,,0.01,Wunderground v.1.15,2013-03-08 08:56:00,
2013-03-08 01:02:00,41.9,39.5,29.81,West,259,0.0,0.0,91,0.00,,,0.01,Wunderground v.1.15,2013-03-08 09:02:00,
2013-03-08 01:07:00,42.1,39.7,29.81,West,259,0.0,0.0,91,0.00,,,0.01,Wunderground v.1.15,2013-03-08 09:07:00,
2013-03-08 01:12:00,42.3,39.9,29.80,West,259,0.0,0.0,91,0.00,,,0.02,Wunderground v.1.15,2013-03-08 09:12:00,
2013-03-08 01:17:00,42.4,40.0,29.81,West,259,0.0,0.0,91,0.00,,,0.02,Wunderground v.1.15,2013-03-08 09:17:00,
2013-03-08 01:23:00,42.5,40.1,29.80,West,259,0.0,0.0,91,0.00,,,0.02,Wunderground v.1.15,2013-03-08 09:23:00,
2013-03-08 01:28:00,42.5,40.1,29.80,West,259,0.0,0.0,91,0.00,,,0.02,Wunderground v.1.15,2013-03-08 09:28:00,
2013-03-08 01:33:00,42.5,39.8,29.80,West,259,0.0,0.0,90,0.00,,,0.02,Wunderground v.1.15,2013-03-08 09:33:00,
2013-03-08 01:39:00,42.5,39.8,29.79,West,259,0.0,0.0,90,0.00,,,0.03,Wunderground v.1.15,2013-03-08 09:39:00,
2013-03-08 01:44:00,42.5,39.8,29.79,West,259,0.0,0.0,90,0.00,,,0.03,Wunderground v.1.15,2013-03-08 09:44:00,
2013-03-08 01:49:00,42.5,39.8,29.79,West,259,0.0,0.0,90,0.05,,,0.04,Wunderground v.1.15,2013-03-08 09:49:00,
2013-03-08 01:55:00,42.5,39.8,29.79,West,259,0.0,0.0,90,0.05,,,0.04,Wunderground v.1.15,2013-03-08 09:55:00,
2013-03-08 02:00:00,42.5,39.8,29.79,West,259,0.0,0.0,90,0.05,,,0.04,Wunderground v.1.15,2013-03-08 10:00:00,
2013-03-08 02:05:00,42.5,39.8,29.79,West,259,0.0,0.0,90,0.05,,,0.05,Wunderground v.1.15,2013-03-08 10:05:00,
2013-03-08 02:10:00,42.5,39.8,29.78,West,259,0.0,0.0,90,0.10,,,0.06,Wunderground v.1.15,2013-03-08 10:10:00,
2013-03-08 02:15:00,42.5,39.8,29.78,West,259,0.0,0.0,90,0.07,,,0.07,Wunderground v.1.15,2013-03-08 10:15:00,
2013-03-08 02:20:00,42.5,39.8,29.78,West,259,0.0,0.0,90,0.13,,,0.08,Wunderground v.1.15,2013-03-08 10:20:00,
2013-03-08 02:25:00,42.4,39.7,29.78,West,259,0.0,0.0,90,0.10,,,0.08,Wunderground v.1.15,2013-03-08 10:25:00,
2013-03-08 02:30:00,42.3,39.6,29.77,West,260,0.0,0.0,90,0.09,,,0.09,Wunderground v.1.15,2013-03-08 10:30:00,
2013-03-08 02:35:00,42.1,39.4,29.77,West,261,0.0,0.0,90,0.12,,,0.10,Wunderground v.1.15,2013-03-08 10:35:00,
2013-03-08 02:40:00,42.0,39.3,29.77,West,260,0.0,0.0,90,0.09,,,0.11,Wunderground v.1.15,2013-03-08 10:40:00,
2013-03-08 02:45:00,41.9,39.2,29.77,West,261,0.0,0.0,90,0.10,,,0.12,Wunderground v.1.15,2013-03-08 10:45:00,
2013-03-08 02:50:00,41.8,39.1,29.76,West,260,0.0,0.0,90,0.08,,,0.12,Wunderground v.1.15,2013-03-08 10:50:00,
2013-03-08 02:55:00,41.8,39.1,29.76,West,260,0.0,0.0,90,0.17,,,0.14,Wunderground v.1.15,2013-03-08 10:55:00,
2013-03-08 03:00:00,41.7,39.3,29.76,West,261,0.0,0.0,91,0.11,,,0.14,Wunderground v.1.15,2013-03-08 11:00:00,
2013-03-08 03:05:00,41.6,39.2,29.76,West,260,0.0,0.0,91,0.14,,,0.16,Wunderground v.1.15,2013-03-08 11:05:00,
2013-03-08 03:10:00,41.4,39.0,29.76,West,261,0.0,0.0,91,0.11,,,0.16,Wunderground v.1.15,2013-03-08 11:10:00,
2013-03-08 03:15:00,41.3,38.9,29.76,WNW,288,0.0,0.0,91,0.16,,,0.18,Wunderground v.1.15,2013-03-08 11:15:00,
2013-03-08 03:20:00,41.1,38.7,29.76,WNW,288,0.0,0.0,91,0.13,,,0.19,Wunderground v.1.15,2013-03-08 11:20:00,
2013-03-08 03:25:00,41.0,38.6,29.76,WNW,288,0.0,0.0,91,0.18,,,0.20,Wunderground v.1.15,2013-03-08 11:25:00,
2013-03-08 03:30:00,40.7,38.3,29.75,NW,311,0.0,0.0,91,0.17,,,0.22,Wunderground v.1.15,2013-03-08 11:30:00,
2013-03-08 03:35:00,40.5,38.1,29.75,NW,311,0.0,0.0,91,0.19,,,0.23,Wunderground v.1.15,2013-03-08 11:35:00,
2013-03-08 03:40:00,40.4,38.0,29.75,NW,311,0.0,0.0,91,0.17,,,0.25,Wunderground v.1.15,2013-03-08 11:40:00,
2013-03-08 03:45:00,40.3,37.9,29.74,NW,312,0.0,0.0,91,0.12,,,0.26,Wunderground v.1.15,2013-03-08 11:45:00,
2013-03-08 03:50:00,40.2,37.8,29.74,NW,312,0.0,0.0,91,0.10,,,0.26,Wunderground v.1.15,2013-03-08 11:50:00,
2013-03-08 03:55:00,40.1,37.7,29.74,NW,311,0.0,0.0,91,0.05,,,0.26,Wunderground v.1.15,2013-03-08 11:55:00,
2013-03-08 04:00:00,40.1,37.7,29.74,NW,312,0.0,0.0,91,0.05,,,0.27,Wunderground v.1.15,2013-03-08 12:00:00,
2013-03-08 04:05:00,40.1,37.7,29.74,NW,312,0.0,0.0,91,0.07,,,0.28,Wunderground v.1.15,2013-03-08 12:05:00,
2013-03-08 04:10:00,40.1,37.7,29.74,NW,312,0.0,0.0,91,0.12,,,0.29,Wunderground v.1.15,2013-03-08 12:10:00,
2013-03-08 04:15:00,40.2,37.8,29.75,NW,312,0.0,0.0,91,0.21,,,0.30,Wunderground v.1.15,2013-03-08 12:15:00,
2013-03-08 04:20:00,40.4,38.0,29.74,SSE,148,0.0,0.0,91,0.28,,,0.32,Wunderground v.1.15,2013-03-08 12:20:00,
2013-03-08 04:25:00,40.5,38.1,29.74,South,172,0.0,0.0,91,0.26,,,0.35,Wunderground v.1.15,2013-03-08 12:25:00,
2013-03-08 04:30:00,40.6,38.2,29.75,SSE,163,0.0,0.0,91,0.30,,,0.38,Wunderground v.1.15,2013-03-08 12:30:00,
2013-03-08 04:35:00,40.7,38.3,29.75,SSW,200,6.0,6.0,91,0.43,,,0.40,Wunderground v.1.15,2013-03-08 12:35:00,
2013-03-08 04:40:00,40.5,38.1,29.75,SSE,154,0.0,0.0,91,0.25,,,0.43,Wunderground v.1.15,2013-03-08 12:40:00,
2013-03-08 04:45:00,40.1,37.7,29.76,SSW,200,0.0,4.0,91,0.25,,,0.45,Wunderground v.1.15,2013-03-08 12:45:00,
2013-03-08 04:50:00,39.8,37.1,29.76,SE,144,3.0,3.0,90,0.20,,,0.47,Wunderground v.1.15,2013-03-08 12:50:00,
2013-03-08 04:55:00,39.5,37.1,29.76,South,179,0.0,4.0,91,0.25,,,0.49,Wunderground v.1.15,2013-03-08 12:55:00,
2013-03-08 05:00:00,39.4,37.0,29.76,SSE,157,0.0,0.0,91,0.33,,,0.52,Wunderground v.1.15,2013-03-08 13:00:00,
2013-03-08 05:05:00,39.3,36.9,29.77,South,175,0.0,0.0,91,0.32,,,0.54,Wunderground v.1.15,2013-03-08 13:05:00,
2013-03-08 05:10:00,39.2,36.8,29.77,SSE,167,0.0,1.0,91,0.23,,,0.56,Wunderground v.1.15,2013-03-08 13:10:00,
2013-03-08 05:15:00,38.8,36.4,29.77,SE,140,0.0,1.0,91,0.27,,,0.58,Wunderground v.1.15,2013-03-08 13:15:00,
2013-03-08 05:20:00,38.6,36.2,29.78,SE,137,0.0,3.0,91,0.26,,,0.60,Wunderground v.1.15,2013-03-08 13:20:00,
2013-03-08 05:25:00,38.3,35.9,29.79,South,186,0.0,3.0,91,0.30,,,0.61,Wunderground v.1.15,2013-03-08 13:25:00,
2013-03-08 05:30:00,38.1,35.7,29.79,East,95,0.0,0.0,91,0.29,,,0.63,Wunderground v.1.15,2013-03-08 13:30:00,
2013-03-08 05:35:00,37.9,35.5,29.79,East,89,1.0,7.0,91,0.28,,,0.65,Wunderground v.1.15,2013-03-08 13:35:00,
2013-03-08 05:40:00,38.2,35.8,29.80,NW,314,11.0,13.0,91,0.35,,,0.67,Wunderground v.1.15,2013-03-08 13:40:00,
2013-03-08 05:45:00,37.1,34.4,29.82,West,280,4.0,20.0,90,0.15,,,0.69,Wunderground v.1.15,2013-03-08 13:45:00,
2013-03-08 05:50:00,36.4,34.0,29.83,West,281,4.0,5.0,91,0.19,,,0.71,Wunderground v.1.15,2013-03-08 13:50:00,
2013-03-08 05:55:00,36.4,34.0,29.84,WNW,301,0.0,7.0,91,0.23,,,0.73,Wunderground v.1.15,2013-03-08 13:55:00,
2013-03-08 06:00:00,36.3,33.9,29.84,NW,304,0.0,1.0,91,0.26,,,0.75,Wunderground v.1.15,2013-03-08 14:00:00,
2013-03-08 06:06:00,36.2,34.1,29.84,NW,304,0.0,1.0,92,0.13,,,0.76,Wunderground v.1.15,2013-03-08 14:06:00,
2013-03-08 06:10:00,36.0,33.6,29.84,NW,304,0.0,0.0,91,0.20,,,0.78,Wunderground v.1.15,2013-03-08 14:10:00,
2013-03-08 06:16:00,35.8,33.7,29.83,North,9,0.0,0.0,92,0.14,,,0.79,Wunderground v.1.15,2013-03-08 14:16:00,
2013-03-08 06:20:00,35.7,33.6,29.83,NNW,336,0.0,0.0,92,0.07,,,0.80,Wunderground v.1.15,2013-03-08 14:20:00,
2013-03-08 06:25:00,35.7,33.6,29.83,NNE,26,0.0,0.0,92,0.07,,,0.80,Wunderground v.1.15,2013-03-08 14:25:00,
2013-03-08 06:30:00,35.8,33.7,29.83,NE,44,0.0,0.0,92,0.06,,,0.81,Wunderground v.1.15,2013-03-08 14:30:00,
2013-03-08 06:35:00,36.1,34.0,29.83,NE,45,0.0,0.0,92,0.06,,,0.81,Wunderground v.1.15,2013-03-08 14:35:00,
2013-03-08 06:40:00,36.2,34.1,29.83,NE,42,0.0,0.0,92,0.09,,,0.82,Wunderground v.1.15,2013-03-08 14:40:00,
2013-03-08 06:45:00,36.4,34.3,29.83,ENE,64,0.0,0.0,92,0.07,,,0.83,Wunderground v.1.15,2013-03-08 14:45:00,
2013-03-08 06:50:00,36.5,34.4,29.82,ENE,64,0.0,0.0,92,0.07,,,0.83,Wunderground v.1.15,2013-03-08 14:50:00,
2013-03-08 06:55:00,36.7,34.6,29.81,ENE,65,0.0,0.0,92,0.05,,,0.83,Wunderground v.1.15,2013-03-08 14:55:00,
2013-03-08 07:00:00,36.9,35.1,29.82,ENE,64,0.0,0.0,93,0.04,,,0.83,Wunderground v.1.15,2013-03-08 15:00:00,
2013-03-08 07:05:00,37.2,35.4,29.83,East,88,0.0,0.0,93,0.00,,,0.83,Wunderground v.1.15,2013-03-08 15:05:00,
2013-03-08 07:10:00,37.4,35.6,29.83,East,88,0.0,0.0,93,0.00,,,0.83,Wunderground v.1.15,2013-03-08 15:10:00,
2013-03-08 07:16:00,37.6,35.8,29.83,ESE,109,0.0,0.0,93,0.00,,,0.83,Wunderground v.1.15,2013-03-08 15:16:00,
2013-03-08 07:21:00,37.6,35.8,29.83,SE,142,0.0,0.0,93,0.00,,,0.83,Wunderground v.1.15,2013-03-08 15:21:00,
2013-03-08 07:26:00,37.6,35.8,29.83,SE,144,0.0,0.0,93,0.00,,,0.83,Wunderground v.1.15,2013-03-08 15:26:00,
2013-03-08 07:31:00,37.5,35.7,29.83,SE,144,0.0,0.0,93,0.00,,,0.83,Wunderground v.1.15,2013-03-08 15:31:00,
2013-03-08 07:36:00,37.7,35.9,29.83,SSE,149,0.0,0.0,93,0.00,,,0.83,Wunderground v.1.15,2013-03-08 15:36:00,
2013-03-08 07:41:00,37.9,36.1,29.83,SSW,209,0.0,0.0,93,0.00,,,0.84,Wunderground v.1.15,2013-03-08 15:41:00,
2013-03-08 07:46:00,38.2,36.4,29.83,SSW,211,0.0,0.0,93,0.00,,,0.84,Wunderground v.1.15,2013-03-08 15:46:00,
2013-03-08 07:51:00,38.1,36.3,29.83,West,273,0.0,0.0,93,0.05,,,0.85,Wunderground v.1.15,2013-03-08 15:51:00,
2013-03-08 07:56:00,38.2,36.4,29.83,WNW,290,0.0,0.0,93,0.05,,,0.85,Wunderground v.1.15,2013-03-08 15:56:00,
2013-03-08 08:01:00,38.4,36.6,29.83,West,267,0.0,0.0,93,0.05,,,0.85,Wunderground v.1.15,2013-03-08 16:01:00,
2013-03-08 08:06:00,38.4,36.6,29.84,WNW,301,0.0,0.0,93,0.00,,,0.85,Wunderground v.1.15,2013-03-08 16:06:00,
2013-03-08 08:11:00,38.3,36.5,29.84,West,269,0.0,0.0,93,0.00,,,0.85,Wunderground v.1.15,2013-03-08 16:11:00,
2013-03-08 08:16:00,38.2,36.4,29.84,West,274,0.0,0.0,93,0.15,,,0.87,Wunderground v.1.15,2013-03-08 16:16:00,
2013-03-08 08:21:00,37.9,36.1,29.84,West,275,0.0,0.0,93,0.11,,,0.87,Wunderground v.1.15,2013-03-08 16:21:00,
2013-03-08 08:26:00,38.0,36.2,29.84,West,275,0.0,0.0,93,0.06,,,0.87,Wunderground v.1.15,2013-03-08 16:26:00,
2013-03-08 08:31:00,38.2,36.4,29.84,WNW,299,0.0,0.0,93,0.04,,,0.87,Wunderground v.1.15,2013-03-08 16:31:00,
2013-03-08 08:36:00,38.4,36.6,29.84,West,279,0.0,0.0,93,0.00,,,0.87,Wunderground v.1.15,2013-03-08 16:36:00,
2013-03-08 08:41:00,38.4,36.6,29.84,WNW,290,0.0,0.0,93,0.00,,,0.87,Wunderground v.1.15,2013-03-08 16:41:00,
2013-03-08 08:46:00,38.7,36.9,29.84,WNW,284,0.0,0.0,93,0.00,,,0.87,Wunderground v.1.15,2013-03-08 16:46:00,
2013-03-08 08:52:00,39.1,37.5,29.84,WNW,292,0.0,0.0,94,0.00,,,0.87,Wunderground v.1.15,2013-03-08 16:52:00,
2013-03-08 08:57:00,39.3,37.4,29.84,WNW,294,0.0,0.0,93,0.00,,,0.87,Wunderground v.1.15,2013-03-08 16:57:00,
2013-03-08 09:02:00,39.7,38.1,29.84,WNW,292,0.0,0.0,94,0.00,,,0.87,Wunderground v.1.15,2013-03-08 17:02:00,
2013-03-08 09:07:00,40.1,38.5,29.84,WNW,290,0.0,0.0,94,0.00,,,0.88,Wunderground v.1.15,2013-03-08 17:07:00,
2013-03-08 09:12:00,40.3,38.7,29.84,WNW,290,0.0,0.0,94,0.00,,,0.88,Wunderground v.1.15,2013-03-08 17:12:00,
2013-03-08 09:17:00,40.6,39.0,29.85,NW,308,0.0,0.0,94,0.00,,,0.88,Wunderground v.1.15,2013-03-08 17:17:00,
2013-03-08 09:22:00,41.1,39.5,29.85,WNW,301,0.0,0.0,94,0.00,,,0.88,Wunderground v.1.15,2013-03-08 17:22:00,
2013-03-08 09:27:00,41.3,39.7,29.85,WNW,290,0.0,0.0,94,0.00,,,0.88,Wunderground v.1.15,2013-03-08 17:27:00,
2013-03-08 09:32:00,41.2,39.3,29.85,WSW,246,0.0,0.0,93,0.00,,,0.88,Wunderground v.1.15,2013-03-08 17:32:00,
2013-03-08 09:37:00,41.0,39.1,29.86,WNW,296,3.0,8.0,93,0.00,,,0.88,Wunderground v.1.15,2013-03-08 17:37:00,
2013-03-08 09:42:00,41.0,39.1,29.86,WNW,293,1.0,7.0,93,0.00,,,0.88,Wunderground v.1.15,2013-03-08 17:42:00,
2013-03-08 09:47:00,40.6,38.5,29.86,WSW,254,2.0,11.0,92,0.00,,,0.88,Wunderground v.1.15,2013-03-08 17:47:00,
2013-03-08 09:52:00,41.3,39.2,29.86,West,260,3.0,5.0,92,0.00,,,0.88,Wunderground v.1.15,2013-03-08 17:52:00,
2013-03-08 09:57:00,41.4,39.0,29.86,SW,220,0.0,10.0,91,0.00,,,0.88,Wunderground v.1.15,2013-03-08 17:57:00,
2013-03-08 10:02:00,41.6,38.9,29.86,WNW,285,2.0,9.0,90,0.00,,,0.88,Wunderground v.1.15,2013-03-08 18:02:00,
2013-03-08 10:07:00,41.9,38.9,29.86,WSW,248,0.0,10.0,89,0.00,,,0.88,Wunderground v.1.15,2013-03-08 18:07:00,
2013-03-08 10:12:00,42.0,39.0,29.86,West,265,3.0,5.0,89,0.00,,,0.88,Wunderground v.1.15,2013-03-08 18:12:00,
2013-03-08 10:17:00,42.3,39.3,29.86,West,265,0.0,5.0,89,0.00,,,0.88,Wunderground v.1.15,2013-03-08 18:17:00,
2013-03-08 10:22:00,42.8,39.5,29.86,West,280,0.0,7.0,88,0.00,,,0.88,Wunderground v.1.15,2013-03-08 18:22:00,
2013-03-08 10:27:00,44.0,41.0,29.84,WNW,302,0.0,7.0,89,0.00,,,0.88,Wunderground v.1.15,2013-03-08 18:27:00,
2013-03-08 10:32:00,44.3,40.1,29.85,SSW,200,1.0,7.0,85,0.00,,,0.88,Wunderground v.1.15,2013-03-08 18:32:00,
2013-03-08 10:37:00,44.2,39.7,29.85,West,279,3.0,10.0,84,0.00,,,0.88,Wunderground v.1.15,2013-03-08 18:37:00,
2013-03-08 10:42:00,44.2,40.0,29.85,West,280,1.0,7.0,85,0.00,,,0.88,Wunderground v.1.15,2013-03-08 18:42:00,
2013-03-08 10:47:00,43.1,38.0,29.86,West,262,4.0,13.0,82,0.00,,,0.88,Wunderground v.1.15,2013-03-08 18:47:00,
2013-03-08 10:52:00,41.9,36.8,29.86,West,269,11.0,11.0,82,0.00,,,0.89,Wunderground v.1.15,2013-03-08 18:52:00,
2013-03-08 10:58:00,41.1,36.6,29.87,WNW,300,4.0,12.0,84,0.00,,,0.89,Wunderground v.1.15,2013-03-08 18:58:00,
2013-03-08 11:03:00,40.2,36.3,29.87,WNW,282,0.0,10.0,86,0.16,,,0.91,Wunderground v.1.15,2013-03-08 19:03:00,
2013-03-08 11:08:00,39.6,36.0,29.87,WNW,302,0.0,10.0,87,0.10,,,0.91,Wunderground v.1.15,2013-03-08 19:08:00,
2013-03-08 11:13:00,39.2,35.9,29.86,WNW,302,0.0,4.0,88,0.08,,,0.92,Wunderground v.1.15,2013-03-08 19:13:00,
2013-03-08 11:18:00,39.1,36.1,29.87,North,360,0.0,4.0,89,0.07,,,0.92,Wunderground v.1.15,2013-03-08 19:18:00,
2013-03-08 11:23:00,39.2,36.2,29.87,North,350,0.0,2.0,89,0.04,,,0.92,Wunderground v.1.15,2013-03-08 19:23:00,
2013-03-08 11:28:00,39.5,36.8,29.87,North,350,0.0,2.0,90,0.00,,,0.92,Wunderground v.1.15,2013-03-08 19:28:00,
2013-03-08 11:33:00,40.2,37.5,29.86,North,350,0.0,0.0,90,0.00,,,0.92,Wunderground v.1.15,2013-03-08 19:33:00,
2013-03-08 11:38:00,40.8,38.1,29.86,NNE,15,1.0,3.0,90,0.00,,,0.92,Wunderground v.1.15,2013-03-08 19:38:00,
2013-03-08 11:43:00,41.1,38.4,29.86,NE,37,0.0,0.0,90,0.00,,,0.92,Wunderground v.1.15,2013-03-08 19:43:00,
2013-03-08 11:48:00,41.4,38.7,29.86,NNE,33,1.0,1.0,90,0.00,,,0.92,Wunderground v.1.15,2013-03-08 19:48:00,
2013-03-08 11:53:00,42.2,39.5,29.85,NNW,330,0.0,2.0,90,0.00,,,0.92,Wunderground v.1.15,2013-03-08 19:53:00,
2013-03-08 11:58:00,43.3,40.8,29.84,WNW,302,0.0,2.0,91,0.00,,,0.92,Wunderground v.1.15,2013-03-08 19:58:00,
2013-03-08 12:03:00,43.6,40.6,29.84,WNW,294,2.0,6.0,89,0.00,,,0.92,Wunderground v.1.15,2013-03-08 20:03:00,
2013-03-08 12:08:00,42.8,39.2,29.85,WNW,292,3.0,10.0,87,0.00,,,0.92,Wunderground v.1.15,2013-03-08 20:08:00,
2013-03-08 12:13:00,41.9,38.0,29.85,NW,325,4.0,7.0,86,0.00,,,0.92,Wunderground v.1.15,2013-03-08 20:13:00,
2013-03-08 12:18:00,41.1,37.2,29.85,WNW,286,3.0,9.0,86,0.00,,,0.93,Wunderground v.1.15,2013-03-08 20:18:00,
2013-03-08 12:23:00,40.8,36.9,29.85,WNW,300,3.0,7.0,86,0.00,,,0.93,Wunderground v.1.15,2013-03-08 20:23:00,
2013-03-08 12:28:00,40.1,36.5,29.85,West,276,5.0,14.0,87,0.06,,,0.94,Wunderground v.1.15,2013-03-08 20:28:00,
2013-03-08 12:33:00,39.7,36.4,29.86,NNE,13,2.0,11.0,88,0.13,,,0.95,Wunderground v.1.15,2013-03-08 20:33:00,
2013-03-08 12:38:00,39.4,36.4,29.86,WNW,302,9.0,11.0,89,0.08,,,0.96,Wunderground v.1.15,2013-03-08 20:38:00,
2013-03-08 12:43:00,39.3,36.3,29.86,WNW,284,0.0,9.0,89,0.08,,,0.96,Wunderground v.1.15,2013-03-08 20:43:00,
2013-03-08 12:48:00,39.5,36.8,29.86,NW,311,1.0,10.0,90,0.05,,,0.96,Wunderground v.1.15,2013-03-08 20:48:00,
2013-03-08 12:53:00,39.7,37.0,29.86,NW,304,0.0,6.0,90,0.04,,,0.96,Wunderground v.1.15,2013-03-08 20:53:00,
2013-03-08 12:58:00,39.5,36.8,29.86,WNW,291,0.0,6.0,90,0.00,,,0.96,Wunderground v.1.15,2013-03-08 20:58:00,
2013-03-08 13:03:00,40.0,37.6,29.85,NW,313,3.0,3.0,91,0.00,,,0.96,Wunderground v.1.15,2013-03-08 21:03:00,
2013-03-08 13:08:00,40.7,38.6,29.85,NNW,332,0.0,3.0,92,0.00,,,0.96,Wunderground v.1.15,2013-03-08 21:08:00,
2013-03-08 13:13:00,41.4,39.3,29.85,WNW,303,2.0,4.0,92,0.00,,,0.96,Wunderground v.1.15,2013-03-08 21:13:00,
2013-03-08 13:18:00,41.5,39.1,29.85,West,272,1.0,4.0,91,0.00,,,0.96,Wunderground v.1.15,2013-03-08 21:18:00,
2013-03-08 13:23:00,41.7,39.3,29.85,WNW,287,0.0,3.0,91,0.00,,,0.96,Wunderground v.1.15,2013-03-08 21:23:00,
2013-03-08 13:28:00,41.7,39.3,29.85,NW,315,2.0,4.0,91,0.00,,,0.96,Wunderground v.1.15,2013-03-08 21:28:00,
2013-03-08 13:34:00,41.2,38.5,29.85,WSW,255,4.0,5.0,90,0.00,,,0.96,Wunderground v.1.15,2013-03-08 21:34:00,
2013-03-08 13:39:00,40.9,37.9,29.84,WNW,286,5.0,9.0,89,0.00,,,0.96,Wunderground v.1.15,2013-03-08 21:39:00,
2013-03-08 13:44:00,40.9,37.9,29.85,SW,236,3.0,7.0,89,0.00,,,0.96,Wunderground v.1.15,2013-03-08 21:44:00,
2013-03-08 13:49:00,41.1,38.1,29.85,West,273,5.0,11.0,89,0.00,,,0.96,Wunderground v.1.15,2013-03-08 21:49:00,
2013-03-08 13:54:00,41.2,38.2,29.85,NW,306,5.0,11.0,89,0.00,,,0.96,Wunderground v.1.15,2013-03-08 21:54:00,
2013-03-08 13:59:00,40.4,36.8,29.86,West,266,6.0,11.0,87,0.00,,,0.97,Wunderground v.1.15,2013-03-08 21:59:00,
2013-03-08 14:04:00,38.1,34.3,29.88,WNW,292,5.0,9.0,86,0.17,,,0.98,Wunderground v.1.15,2013-03-08 22:04:00,
2013-03-08 14:09:00,36.5,33.0,29.88,WNW,286,4.0,9.0,87,0.11,,,0.99,Wunderground v.1.15,2013-03-08 22:09:00,
2013-03-08 14:14:00,35.8,32.6,29.88,West,281,0.0,5.0,88,0.27,,,1.01,Wunderground v.1.15,2013-03-08 22:14:00,
2013-03-08 14:19:00,35.4,32.5,29.89,West,271,0.0,5.0,89,0.28,,,1.03,Wunderground v.1.15,2013-03-08 22:19:00,
2013-03-08 14:24:00,35.1,32.2,29.89,West,273,0.0,2.0,89,0.17,,,1.04,Wunderground v.1.15,2013-03-08 22:24:00,
2013-03-08 14:29:00,34.6,31.7,29.89,WNW,285,0.0,2.0,89,0.19,,,1.06,Wunderground v.1.15,2013-03-08 22:29:00,
2013-03-08 14:34:00,34.4,31.8,29.89,WSW,248,0.0,0.0,90,0.18,,,1.08,Wunderground v.1.15,2013-03-08 22:34:00,
2013-03-08 14:39:00,34.6,32.2,29.89,WSW,247,0.0,0.0,91,0.19,,,1.09,Wunderground v.1.15,2013-03-08 22:39:00,
2013-03-08 14:44:00,35.0,32.6,29.89,SW,234,0.0,0.0,91,0.19,,,1.11,Wunderground v.1.15,2013-03-08 22:44:00,
2013-03-08 14:49:00,35.5,33.4,29.88,SW,234,0.0,0.0,92,0.13,,,1.12,Wunderground v.1.15,2013-03-08 22:49:00,
2013-03-08 14:54:00,36.2,34.1,29.88,SW,234,0.0,0.0,92,0.17,,,1.13,Wunderground v.1.15,2013-03-08 22:54:00,
2013-03-08 14:59:00,37.0,34.9,29.88,SW,234,0.0,0.0,92,0.11,,,1.14,Wunderground v.1.15,2013-03-08 22:59:00,
2013-03-08 15:05:00,37.7,35.6,29.87,SW,234,0.0,0.0,92,0.11,,,1.15,Wunderground v.1.15,2013-03-08 23:05:00,
2013-03-08 15:10:00,37.7,35.6,29.87,SW,236,0.0,0.0,92,0.09,,,1.15,Wunderground v.1.15,2013-03-08 23:10:00,
2013-03-08 15:15:00,37.6,35.5,29.87,SW,236,0.0,0.0,92,0.06,,,1.16,Wunderground v.1.15,2013-03-08 23:15:00,
2013-03-08 15:20:00,37.8,35.7,29.87,WSW,237,0.0,0.0,92,0.06,,,1.16,Wunderground v.1.15,2013-03-08 23:20:00,
2013-03-08 15:25:00,38.2,36.1,29.87,WSW,237,0.0,0.0,92,0.05,,,1.16,Wunderground v.1.15,2013-03-08 23:25:00,
2013-03-08 15:30:00,38.6,36.5,29.87,WSW,237,0.0,0.0,92,0.05,,,1.17,Wunderground v.1.15,2013-03-08 23:30:00,
2013-03-08 15:35:00,39.2,37.3,29.87,WSW,242,0.0,0.0,93,0.05,,,1.17,Wunderground v.1.15,2013-03-08 23:35:00,
2013-03-08 15:40:00,39.5,37.4,29.86,WSW,245,0.0,0.0,92,0.04,,,1.17,Wunderground v.1.15,2013-03-08 23:40:00,
2013-03-08 15:45:00,39.7,37.6,29.86,WSW,250,0.0,0.0,92,0.00,,,1.17,Wunderground v.1.15,2013-03-08 23:45:00,
2013-03-08 15:50:00,39.5,37.4,29.86,WSW,242,0.0,0.0,92,0.00,,,1.18,Wunderground v.1.15,2013-03-08 23:50:00,
2013-03-08 15:55:00,39.6,37.5,29.86,WSW,242,0.0,0.0,92,0.00,,,1.18,Wunderground v.1.15,2013-03-08 23:55:00,
2013-03-08 16:00:00,39.6,37.2,29.86,WSW,250,0.0,0.0,91,0.00,,,1.18,Wunderground v.1.15,2013-03-09 00:00:00,
2013-03-08 16:05:00,39.8,37.4,29.87,WSW,251,0.0,0.0,91,0.00,,,1.18,Wunderground v.1.15,2013-03-09 00:05:00,
2013-03-08 16:10:00,40.0,37.6,29.87,West,267,0.0,0.0,91,0.00,,,1.18,Wunderground v.1.15,2013-03-09 00:10:00,
2013-03-08 16:15:00,40.2,37.8,29.87,West,259,0.0,0.0,91,0.00,,,1.18,Wunderground v.1.15,2013-03-09 00:15:00,
2013-03-08 16:20:00,40.2,37.8,29.87,SW,214,0.0,0.0,91,0.00,,,1.18,Wunderground v.1.15,2013-03-09 00:20:00,
2013-03-08 16:25:00,40.3,37.9,29.87,SW,214,0.0,0.0,91,0.00,,,1.18,Wunderground v.1.15,2013-03-09 00:25:00,
2013-03-08 16:30:00,40.2,37.5,29.87,West,259,0.0,0.0,90,0.00,,,1.18,Wunderground v.1.15,2013-03-09 00:30:00,
2013-03-08 16:35:00,40.3,37.6,29.87,SSW,209,0.0,0.0,90,0.00,,,1.18,Wunderground v.1.15,2013-03-09 00:35:00,
2013-03-08 16:40:00,40.1,37.4,29.88,SW,225,0.0,0.0,90,0.00,,,1.18,Wunderground v.1.15,2013-03-09 00:40:00,
2013-03-08 16:45:00,40.0,37.3,29.88,South,180,0.0,0.0,90,0.00,,,1.18,Wunderground v.1.15,2013-03-09 00:45:00,
2013-03-08 16:50:00,40.1,37.4,29.88,SW,225,0.0,0.0,90,0.00,,,1.18,Wunderground v.1.15,2013-03-09 00:50:00,
2013-03-08 16:55:00,40.0,37.3,29.88,SW,236,0.0,0.0,90,0.00,,,1.18,Wunderground v.1.15,2013-03-09 00:55:00,
2013-03-08 17:00:00,40.0,37.3,29.88,West,281,0.0,0.0,90,0.00,,,1.19,Wunderground v.1.15,2013-03-09 01:00:00,
2013-03-08 17:05:00,39.7,37.0,29.89,WNW,288,0.0,0.0,90,0.00,,,1.19,Wunderground v.1.15,2013-03-09 01:05:00,
2013-03-08 17:11:00,39.7,37.0,29.89,West,278,0.0,0.0,90,0.05,,,1.20,Wunderground v.1.15,2013-03-09 01:11:00,
2013-03-08 17:16:00,39.7,37.0,29.89,West,265,0.0,0.0,90,0.05,,,1.20,Wunderground v.1.15,2013-03-09 01:16:00,
2013-03-08 17:21:00,39.8,37.4,29.89,WNW,282,0.0,0.0,91,0.05,,,1.20,Wunderground v.1.15,2013-03-09 01:21:00,
2013-03-08 17:26:00,39.8,37.4,29.89,WNW,283,0.0,0.0,91,0.05,,,1.21,Wunderground v.1.15,2013-03-09 01:26:00,
2013-03-08 17:31:00,39.8,37.4,29.90,WNW,292,0.0,0.0,91,0.05,,,1.21,Wunderground v.1.15,2013-03-09 01:31:00,
2013-03-08 17:36:00,39.7,37.3,29.90,WNW,291,0.0,0.0,91,0.06,,,1.22,Wunderground v.1.15,2013-03-09 01:36:00,
2013-03-08 17:41:00,39.7,37.3,29.90,West,279,0.0,0.0,91,0.06,,,1.22,Wunderground v.1.15,2013-03-09 01:41:00,
2013-03-08 17:46:00,39.5,37.1,29.90,NW,311,0.0,0.0,91,0.05,,,1.23,Wunderground v.1.15,2013-03-09 01:46:00,
2013-03-08 17:51:00,39.2,36.8,29.91,WNW,282,0.0,0.0,91,0.05,,,1.23,Wunderground v.1.15,2013-03-09 01:51:00,
2013-03-08 17:56:00,39.0,36.6,29.91,WNW,286,0.0,0.0,91,0.05,,,1.23,Wunderground v.1.15,2013-03-09 01:56:00,
2013-03-08 18:01:00,39.0,36.6,29.92,WNW,292,0.0,0.0,91,0.04,,,1.23,Wunderground v.1.15,2013-03-09 02:01:00,
2013-03-08 18:06:00,39.1,37.0,29.91,WNW,294,0.0,0.0,92,0.00,,,1.24,Wunderground v.1.15,2013-03-09 02:06:00,
2013-03-08 18:11:00,39.0,36.9,29.92,WNW,291,0.0,0.0,92,0.12,,,1.25,Wunderground v.1.15,2013-03-09 02:11:00,
2013-03-08 18:16:00,39.0,36.9,29.92,WNW,290,0.0,0.0,92,0.10,,,1.26,Wunderground v.1.15,2013-03-09 02:16:00,
2013-03-08 18:21:00,38.9,36.8,29.92,WNW,297,0.0,0.0,92,0.09,,,1.26,Wunderground v.1.15,2013-03-09 02:21:00,
2013-03-08 18:26:00,38.9,36.8,29.92,WNW,284,0.0,0.0,92,0.07,,,1.27,Wunderground v.1.15,2013-03-09 02:26:00,
2013-03-08 18:31:00,38.8,36.7,29.92,WNW,291,0.0,0.0,92,0.07,,,1.27,Wunderground v.1.15,2013-03-09 02:31:00,
2013-03-08 18:36:00,38.8,36.7,29.92,West,280,0.0,0.0,92,0.04,,,1.27,Wunderground v.1.15,2013-03-09 02:36:00,
2013-03-08 18:41:00,38.7,36.6,29.93,NW,304,0.0,0.0,92,0.00,,,1.27,Wunderground v.1.15,2013-03-09 02:41:00,
2013-03-08 18:46:00,38.8,36.7,29.93,NW,306,0.0,0.0,92,0.00,,,1.27,Wunderground v.1.15,2013-03-09 02:46:00,
2013-03-08 18:51:00,38.9,36.8,29.93,WNW,290,0.0,0.0,92,0.00,,,1.27,Wunderground v.1.15,2013-03-09 02:51:00,
2013-03-08 18:56:00,38.9,36.8,29.94,WNW,296,0.0,0.0,92,0.00,,,1.27,Wunderground v.1.15,2013-03-09 02:56:00,
2013-03-08 19:01:00,38.9,36.8,29.94,West,281,0.0,0.0,92,0.00,,,1.27,Wunderground v.1.15,2013-03-09 03:01:00,
2013-03-08 19:06:00,39.0,36.9,29.94,WNW,296,0.0,0.0,92,0.00,,,1.27,Wunderground v.1.15,2013-03-09 03:06:00,
2013-03-08 19:11:00,39.0,37.1,29.95,West,265,0.0,0.0,93,0.00,,,1.27,Wunderground v.1.15,2013-03-09 03:11:00,
2013-03-08 19:16:00,39.1,37.2,29.95,West,269,0.0,0.0,93,0.00,,,1.27,Wunderground v.1.15,2013-03-09 03:16:00,
2013-03-08 19:21:00,39.2,37.3,29.95,WSW,254,3.0,6.0,93,0.00,,,1.27,Wunderground v.1.15,2013-03-09 03:21:00,
2013-03-08 19:26:00,39.3,37.4,29.95,West,269,2.0,6.0,93,0.00,,,1.28,Wunderground v.1.15,2013-03-09 03:26:00,
2013-03-08 19:31:00,39.4,37.5,29.96,WNW,292,0.0,6.0,93,0.00,,,1.28,Wunderground v.1.15,2013-03-09 03:31:00,
2013-03-08 19:36:00,39.4,37.5,29.96,WNW,298,2.0,6.0,93,0.00,,,1.28,Wunderground v.1.15,2013-03-09 03:36:00,
2013-03-08 19:41:00,39.4,37.5,29.96,West,271,0.0,3.0,93,0.00,,,1.28,Wunderground v.1.15,2013-03-09 03:41:00,
2013-03-08 19:46:00,39.5,37.6,29.96,WNW,283,1.0,4.0,93,0.00,,,1.28,Wunderground v.1.15,2013-03-09 03:46:00,
2013-03-08 19:51:00,39.5,37.6,29.96,WNW,288,1.0,3.0,93,0.00,,,1.29,Wunderground v.1.15,2013-03-09 03:51:00,
2013-03-08 19:56:00,39.5,37.6,29.96,WNW,297,2.0,5.0,93,0.00,,,1.29,Wunderground v.1.15,2013-03-09 03:56:00,
2013-03-08 20:01:00,39.6,37.7,29.96,WNW,291,0.0,2.0,93,0.00,,,1.29,Wunderground v.1.15,2013-03-09 04:01:00,
2013-03-08 20:06:00,39.6,37.7,29.96,WNW,290,0.0,4.0,93,0.05,,,1.30,Wunderground v.1.15,2013-03-09 04:06:00,
2013-03-08 20:11:00,39.7,37.8,29.96,West,279,0.0,4.0,93,0.08,,,1.31,Wunderground v.1.15,2013-03-09 04:11:00,
2013-03-08 20:16:00,39.7,37.8,29.97,West,272,2.0,4.0,93,0.08,,,1.31,Wunderground v.1.15,2013-03-09 04:16:00,
2013-03-08 20:21:00,39.7,37.8,29.97,WSW,252,0.0,3.0,93,0.05,,,1.31,Wunderground v.1.15,2013-03-09 04:21:00,
2013-03-08 20:26:00,39.8,37.9,29.98,West,276,3.0,6.0,93,0.04,,,1.32,Wunderground v.1.15,2013-03-09 04:26:00,
2013-03-08 20:31:00,39.8,37.9,29.98,West,263,1.0,3.0,93,0.14,,,1.33,Wunderground v.1.15,2013-03-09 04:31:00,
2013-03-08 20:36:00,39.9,38.0,29.98,WSW,250,3.0,4.0,93,0.10,,,1.34,Wunderground v.1.15,2013-03-09 04:36:00,
2013-03-08 20:41:00,40.0,38.1,29.98,West,271,1.0,2.0,93,0.10,,,1.34,Wunderground v.1.15,2013-03-09 04:41:00,
2013-03-08 20:46:00,39.9,38.0,29.98,WSW,250,1.0,6.0,93,0.05,,,1.34,Wunderground v.1.15,2013-03-09 04:46:00,
2013-03-08 20:51:00,40.0,38.1,29.98,WNW,287,3.0,6.0,93,0.05,,,1.35,Wunderground v.1.15,2013-03-09 04:51:00,
2013-03-08 20:56:00,40.0,38.1,29.99,WNW,284,3.0,6.0,93,0.05,,,1.35,Wunderground v.1.15,2013-03-09 04:56:00,
2013-03-08 21:00:00,40.1,38.2,29.99,NW,313,1.0,2.0,93,0.05,,,1.35,Wunderground v.1.15,2013-03-09 05:00:00,
2013-03-08 21:02:00,40.1,38.2,29.98,West,265,0.0,2.0,93,0.04,,,1.35,Wunderground v.1.15,2013-03-09 05:02:00,
2013-03-08 21:07:00,40.1,38.2,29.99,West,275,0.0,3.0,93,0.00,,,1.35,Wunderground v.1.15,2013-03-09 05:07:00,
2013-03-08 21:12:00,40.1,38.2,29.99,West,276,0.0,1.0,93,0.00,,,1.35,Wunderground v.1.15,2013-03-09 05:12:00,
2013-03-08 21:16:00,40.1,38.2,29.99,WNW,286,0.0,4.0,93,0.00,,,1.36,Wunderground v.1.15,2013-03-09 05:16:00,
2013-03-08 21:22:00,40.1,38.5,29.99,West,259,0.0,3.0,94,0.08,,,1.37,Wunderground v.1.15,2013-03-09 05:22:00,
2013-03-08 21:27:00,40.1,38.5,29.99,West,269,0.0,5.0,94,0.08,,,1.37,Wunderground v.1.15,2013-03-09 05:27:00,
2013-03-08 21:32:00,40.1,38.5,29.99,West,264,1.0,6.0,94,0.05,,,1.37,Wunderground v.1.15,2013-03-09 05:32:00,
2013-03-08 21:37:00,40.2,38.6,29.99,West,263,1.0,8.0,94,0.04,,,1.37,Wunderground v.1.15,2013-03-09 05:37:00,
2013-03-08 21:42:00,40.2,38.6,29.99,West,276,1.0,9.0,94,0.00,,,1.37,Wunderground v.1.15,2013-03-09 05:42:00,
2013-03-08 21:47:00,40.2,38.6,30.00,West,281,4.0,10.0,94,0.00,,,1.37,Wunderground v.1.15,2013-03-09 05:47:00,
2013-03-08 21:52:00,40.2,38.6,30.00,WSW,246,4.0,4.0,94,0.00,,,1.37,Wunderground v.1.15,2013-03-09 05:52:00,
2013-03-08 21:57:00,40.2,38.6,30.00,West,260,0.0,7.0,94,0.00,,,1.37,Wunderground v.1.15,2013-03-09 05:57:00,
2013-03-08 22:02:00,40.2,38.6,30.00,West,277,0.0,5.0,94,0.00,,,1.37,Wunderground v.1.15,2013-03-09 06:02:00,
2013-03-08 22:07:00,40.2,38.6,30.00,West,271,0.0,6.0,94,0.00,,,1.37,Wunderground v.1.15,2013-03-09 06:07:00,
2013-03-08 22:12:00,40.2,38.6,30.00,SSW,210,4.0,7.0,94,0.00,,,1.37,Wunderground v.1.15,2013-03-09 06:12:00,
2013-03-08 22:17:00,40.3,38.7,30.00,NW,325,4.0,11.0,94,0.00,,,1.37,Wunderground v.1.15,2013-03-09 06:17:00,
2013-03-08 22:22:00,40.3,38.7,30.01,SSW,194,2.0,6.0,94,0.00,,,1.37,Wunderground v.1.15,2013-03-09 06:22:00,
2013-03-08 22:27:00,40.3,38.7,30.01,WSW,240,8.0,9.0,94,0.00,,,1.38,Wunderground v.1.15,2013-03-09 06:27:00,
2013-03-08 22:32:00,40.3,38.7,30.01,SSW,195,2.0,10.0,94,0.00,,,1.38,Wunderground v.1.15,2013-03-09 06:32:00,
2013-03-08 22:37:00,40.3,38.7,30.01,SW,226,1.0,10.0,94,0.00,,,1.38,Wunderground v.1.15,2013-03-09 06:37:00,
2013-03-08 22:42:00,40.3,38.7,30.01,SSW,208,4.0,5.0,94,0.00,,,1.38,Wunderground v.1.15,2013-03-09 06:42:00,
2013-03-08 22:47:00,40.4,38.8,30.01,SW,218,1.0,6.0,94,0.00,,,1.38,Wunderground v.1.15,2013-03-09 06:47:00,
2013-03-08 22:52:00,40.3,38.7,30.01,SSW,200,2.0,6.0,94,0.00,,,1.38,Wunderground v.1.15,2013-03-09 06:52:00,
2013-03-08 22:57:00,40.4,38.8,30.01,WSW,248,2.0,6.0,94,0.00,,,1.38,Wunderground v.1.15,2013-03-09 06:57:00,
2013-03-08 23:02:00,40.4,38.8,30.00,SW,225,0.0,3.0,94,0.00,,,1.38,Wunderground v.1.15,2013-03-09 07:02:00,
2013-03-08 23:07:00,40.4,38.8,30.00,South,171,0.0,3.0,94,0.00,,,1.38,Wunderground v.1.15,2013-03-09 07:07:00,
2013-03-08 23:12:00,40.4,38.8,30.00,SW,234,0.0,6.0,94,0.00,,,1.38,Wunderground v.1.15,2013-03-09 07:12:00,
2013-03-08 23:17:00,40.4,38.8,30.00,WSW,257,0.0,7.0,94,0.00,,,1.39,Wunderground v.1.15,2013-03-09 07:17:00,
2013-03-08 23:23:00,40.5,38.9,30.00,WSW,248,0.0,1.0,94,0.00,,,1.39,Wunderground v.1.15,2013-03-09 07:23:00,
2013-03-08 23:28:00,40.5,38.9,29.99,WSW,249,0.0,3.0,94,0.00,,,1.39,Wunderground v.1.15,2013-03-09 07:28:00,
2013-03-08 23:33:00,40.5,38.9,30.00,West,260,0.0,2.0,94,0.00,,,1.39,Wunderground v.1.15,2013-03-09 07:33:00,
2013-03-08 23:38:00,40.5,38.9,29.99,WSW,245,0.0,4.0,94,0.00,,,1.39,Wunderground v.1.15,2013-03-09 07:38:00,
2013-03-08 23:43:00,40.5,38.9,29.99,West,266,0.0,5.0,94,0.00,,,1.39,Wunderground v.1.15,2013-03-09 07:43:00,
2013-03-08 23:48:00,40.6,39.0,29.99,SW,234,0.0,5.0,94,0.00,,,1.39,Wunderground v.1.15,2013-03-09 07:48:00,
2013-03-08 23:53:00,40.6,39.0,29.99,WSW,258,0.0,1.0,94,0.00,,,1.39,Wunderground v.1.15,2013-03-09 07:53:00,
2013-03-08 23:58:00,40.6,39.0,29.99,West,265,0.0,1.0,94,0.00,,,1.39,Wunderground v.1.15,2013-03-09 07:58:00,